WOLFEBORO: From 09/05/2018 05:00 to 09/20/2018 01:00

Date PRECIPITATION INCREMENT [IN] AIR TEMPERATURE [DEGF] RELATIVE HUMIDITY [%] BAROMETRIC PRESSURE [INHG] AVERAGE WIND SPEED [FT/S] MAXIMUM WIND SPEED [FT/S] MINIMUM WIND SPEED [FT/S] AVERAGE WIND DIRECTION [] MAXIMUM WIND DIRECTION [] MINIMUM WIND DIRECTION []
09/19/2018 14:00 0.00 -- -- 29.36 1.00 8.50 0.00 126.5 212.0 0.0
09/19/2018 13:00 0.00 64.0 59.8 29.36 0.25 4.25 0.00 114.3 209.8 14.5
09/19/2018 12:00 0.00 63.0 60.0 29.35 1.50 10.75 0.00 33.0 103.5 0.0
09/19/2018 11:00 0.00 63.0 63.6 29.33 1.25 9.50 0.00 4.0 29.3 0.0
09/19/2018 10:00 0.00 62.0 67.4 29.31 0.50 9.50 0.00 113.0 192.8 20.8
09/19/2018 09:00 0.00 62.0 67.8 29.30 4.00 11.75 0.00 126.5 223.0 26.0
09/19/2018 08:00 0.00 62.0 67.4 29.27 2.75 10.00 0.00 129.5 215.5 38.5
09/19/2018 07:00 0.00 61.0 75.9 29.26 3.50 10.50 0.00 105.5 199.3 0.3
09/19/2018 06:00 0.00 62.0 78.8 29.24 3.75 11.00 0.00 34.5 153.5 0.0
09/19/2018 05:00 0.00 64.0 80.5 29.21 3.50 10.25 0.00 9.0 101.8 0.0
09/19/2018 04:00 0.00 67.0 78.5 29.19 3.25 9.50 0.00 0.8 31.8 0.0
09/19/2018 03:00 0.00 67.0 78.1 29.18 2.50 7.50 0.00 39.0 89.0 10.3
09/19/2018 02:00 0.00 69.0 78.2 29.18 0.00 1.75 0.00 66.8 89.5 37.3
09/19/2018 01:00 0.00 69.0 80.8 29.17 0.00 1.00 0.00 93.3 152.5 36.5
09/19/2018 00:00 0.00 70.0 79.2 29.15 0.00 1.75 0.00 61.5 218.8 0.5
09/18/2018 23:00 0.00 70.0 82.4 29.13 0.00 0.50 0.00 73.0 205.5 0.0
09/18/2018 22:00 0.00 70.0 81.3 29.13 0.00 0.00 0.00 54.8 140.8 8.0
09/18/2018 21:00 0.00 72.0 78.9 29.12 0.00 0.00 0.00 66.0 180.5 0.0
09/18/2018 20:00 0.00 73.0 75.2 29.11 0.00 0.00 0.00 0.0 18.3 0.0
09/18/2018 19:00 0.00 77.0 64.7 29.10 0.00 0.00 0.00 0.0 7.0 0.0
09/18/2018 18:00 0.00 84.0 43.0 29.10 0.00 0.00 0.00 0.0 33.0 0.0
09/18/2018 17:00 0.00 87.0 37.9 29.10 0.00 1.25 0.00 0.0 39.3 0.0
09/18/2018 16:00 0.00 79.0 56.2 29.10 0.00 0.25 0.00 0.3 58.8 0.0
09/18/2018 15:00 0.01 77.0 64.9 29.11 0.00 2.00 0.00 0.0 44.3 0.0
09/18/2018 14:00 0.00 75.0 70.5 29.13 0.50 4.50 0.00 0.3 57.3 0.0
09/18/2018 13:00 0.00 72.0 76.1 29.13 0.00 2.00 0.00 11.3 66.0 0.0
09/18/2018 12:00 0.03 70.0 84.0 29.15 0.00 0.25 0.00 40.5 142.5 0.0
09/18/2018 11:00 0.06 69.0 85.0 29.16 0.00 3.50 0.00 101.5 158.0 11.3
09/18/2018 10:00 0.12 69.0 84.4 29.18 0.00 3.75 0.00 138.3 219.0 10.8
09/18/2018 09:00 0.13 69.0 83.9 29.20 0.00 1.25 0.00 181.3 249.0 18.5
09/18/2018 08:00 0.02 69.0 83.7 29.22 0.50 4.25 0.00 184.8 264.3 0.3
09/18/2018 07:00 0.01 69.0 83.3 29.22 0.25 6.25 0.00 201.0 264.0 0.0
09/18/2018 06:00 0.02 69.0 82.3 29.23 0.00 2.75 0.00 212.0 263.8 0.0
09/18/2018 05:00 0.00 70.0 75.8 29.24 1.00 8.25 0.00 181.0 256.0 0.0
09/18/2018 04:00 0.00 71.0 73.0 29.26 0.00 3.00 0.00 174.0 241.5 0.0
09/18/2018 03:00 0.00 71.0 72.7 29.27 0.00 1.00 0.00 159.5 239.8 0.0
09/18/2018 02:00 0.00 71.0 70.4 29.29 0.00 1.00 0.00 182.3 240.5 0.0
09/18/2018 01:00 0.00 71.0 69.1 29.29 0.00 2.50 0.00 184.0 239.5 0.0
09/18/2018 00:00 0.00 71.0 65.1 29.29 0.00 0.25 0.00 156.5 239.5 0.0
09/17/2018 23:00 0.00 71.0 63.8 29.30 0.00 3.75 0.00 193.8 239.8 0.0
09/17/2018 22:00 0.00 72.0 62.4 29.32 0.00 4.50 0.00 171.3 242.8 0.0
09/17/2018 21:00 0.00 73.0 60.9 29.32 0.00 5.75 0.00 175.0 243.0 0.0
09/17/2018 20:00 0.00 74.0 58.1 29.32 0.25 4.50 0.00 180.8 240.8 0.0
09/17/2018 19:00 0.00 77.0 54.6 29.33 0.00 2.75 0.00 101.8 182.0 0.0
09/17/2018 18:00 0.00 80.0 47.3 29.34 0.75 8.50 0.00 0.0 40.8 0.0
09/17/2018 17:00 0.00 86.0 32.8 29.36 0.50 7.00 0.00 0.0 34.5 0.0
09/17/2018 16:00 0.00 86.0 36.2 29.38 0.25 7.50 0.00 0.0 38.5 0.0
09/17/2018 15:00 0.00 84.0 38.0 29.40 0.50 8.75 0.00 0.0 38.8 0.0
09/17/2018 14:00 0.00 82.0 49.5 29.42 0.00 3.75 0.00 0.5 65.3 0.0
09/17/2018 13:00 0.00 78.0 56.6 29.45 0.00 0.00 0.00 0.3 42.0 0.0
09/17/2018 12:00 0.00 75.0 66.5 29.47 0.00 0.00 0.00 0.8 51.0 0.0
09/17/2018 11:00 0.00 71.0 75.2 29.48 0.00 0.00 0.00 0.0 58.0 0.0
09/17/2018 10:00 0.00 70.0 77.7 29.49 0.00 0.00 0.00 44.0 126.8 0.0
09/17/2018 09:00 0.00 68.0 83.6 29.50 0.00 0.00 0.00 99.8 156.5 31.3
09/17/2018 08:00 0.00 66.0 83.1 29.50 0.00 0.00 0.00 193.5 209.8 137.0
09/17/2018 07:00 0.00 65.0 81.9 29.50 0.00 0.00 0.00 155.3 169.8 132.3
09/17/2018 06:00 0.00 66.0 81.1 29.51 0.00 0.00 0.00 124.3 154.5 98.0
09/17/2018 05:00 0.00 67.0 80.8 29.52 0.00 0.00 0.00 149.8 173.0 123.5
09/17/2018 04:00 0.00 67.0 81.4 29.53 0.00 0.00 0.00 105.0 192.3 35.5
09/17/2018 03:00 0.00 68.0 79.4 29.55 0.00 0.00 0.00 118.5 143.0 88.0
09/17/2018 02:00 0.00 69.0 77.0 29.56 0.00 0.00 0.00 142.8 162.0 114.8
09/17/2018 01:00 0.00 70.0 76.9 29.58 0.00 0.00 0.00 124.0 166.3 76.0
09/17/2018 00:00 0.00 71.0 75.8 29.57 0.00 0.00 0.00 122.0 196.5 62.3
09/16/2018 23:00 0.00 72.0 72.4 29.57 0.00 0.00 0.00 129.8 202.5 51.3
09/16/2018 22:00 0.00 73.0 70.0 29.57 0.00 0.25 0.00 141.3 250.8 0.5
09/16/2018 21:00 0.00 76.0 67.6 29.55 0.00 0.00 0.00 161.5 252.5 2.0
09/16/2018 20:00 0.00 78.0 63.3 29.55 0.00 0.75 0.00 35.0 61.5 0.0
09/16/2018 19:00 0.00 80.0 55.2 29.54 0.00 0.00 0.00 26.5 87.5 0.0
09/16/2018 18:00 0.00 89.0 23.1 29.54 0.00 0.00 0.00 0.0 49.0 0.0
09/16/2018 17:00 0.00 92.0 19.0 29.55 0.00 0.00 0.00 0.5 54.0 0.0
09/16/2018 16:00 0.00 89.0 30.2 29.55 0.00 0.00 0.00 0.0 49.0 0.0
09/16/2018 15:00 0.00 88.0 33.8 29.57 0.00 0.00 0.00 0.3 60.8 0.0
09/16/2018 14:00 0.00 85.0 43.1 29.57 0.00 0.00 0.00 0.3 43.8 0.0
09/16/2018 13:00 0.00 78.0 57.7 29.58 0.00 0.00 0.00 0.3 48.0 0.0
09/16/2018 12:00 0.00 74.0 63.5 29.59 0.00 0.00 0.00 1.3 66.8 0.0
09/16/2018 11:00 0.00 72.0 68.9 29.59 0.00 0.00 0.00 0.3 49.0 0.0
09/16/2018 10:00 0.00 69.0 78.5 29.59 0.00 0.00 0.00 0.3 62.5 0.0
09/16/2018 09:00 0.00 66.0 82.2 29.57 0.00 0.00 0.00 106.3 167.5 40.0
09/16/2018 08:00 0.00 64.0 82.9 29.56 0.00 0.00 0.00 133.5 196.3 73.0
09/16/2018 07:00 0.00 64.0 82.3 29.56 0.00 0.00 0.00 169.8 194.8 140.3
09/16/2018 06:00 0.00 64.0 82.2 29.55 0.00 0.00 0.00 125.5 161.8 83.8
09/16/2018 05:00 0.00 63.0 82.5 29.55 0.00 0.00 0.00 179.5 198.3 129.3
09/16/2018 04:00 0.00 63.0 82.8 29.55 0.00 0.00 0.00 186.0 198.0 170.0
09/16/2018 03:00 0.00 64.0 82.1 29.55 0.00 0.00 0.00 195.8 210.8 172.5
09/16/2018 02:00 0.00 64.0 82.2 29.55 0.00 0.00 0.00 198.8 206.3 189.5
09/16/2018 01:00 0.00 66.0 79.3 29.56 0.00 0.00 0.00 141.3 198.0 62.5
09/16/2018 00:00 0.00 67.0 77.3 29.56 0.00 0.00 0.00 184.8 220.3 111.8
09/15/2018 23:00 0.00 68.0 76.4 29.56 0.00 0.50 0.00 179.0 253.3 0.3
09/15/2018 22:00 0.00 70.0 72.6 29.55 0.00 2.25 0.00 184.5 254.0 0.0
09/15/2018 21:00 0.00 71.0 68.8 29.54 0.00 0.00 0.00 184.0 251.8 16.8
09/15/2018 20:00 0.00 72.0 66.1 29.53 0.00 0.00 0.00 13.8 85.5 0.0
09/15/2018 19:00 0.00 76.0 47.6 29.53 0.00 0.00 0.00 0.0 31.5 0.0
09/15/2018 18:00 0.00 84.0 29.8 29.54 0.00 0.00 0.00 0.5 65.0 0.0
09/15/2018 17:00 0.00 89.0 15.0 29.54 0.00 0.00 0.00 0.5 64.0 0.0
09/15/2018 16:00 0.00 85.0 19.6 29.55 0.00 0.00 0.00 0.5 44.3 0.0
09/15/2018 15:00 0.00 82.0 29.2 29.56 0.00 1.25 0.00 0.3 39.3 0.0
09/15/2018 14:00 0.00 79.0 44.4 29.58 0.00 1.25 0.00 0.3 47.0 0.0
09/15/2018 13:00 0.00 71.0 64.3 29.59 0.00 0.75 0.00 16.8 124.3 0.0
09/15/2018 12:00 0.00 68.0 68.0 29.59 0.00 0.50 0.00 33.0 133.8 0.0
09/15/2018 11:00 0.00 67.0 72.8 29.59 0.00 3.25 0.00 84.0 252.5 0.0
09/15/2018 10:00 0.00 65.0 77.3 29.59 0.00 3.75 0.00 72.5 248.0 0.0
09/15/2018 09:00 0.00 65.0 78.9 29.59 0.00 0.75 0.00 51.8 250.5 0.3
09/15/2018 08:00 0.00 64.0 81.4 29.58 0.00 0.00 0.00 40.3 187.0 0.0
09/15/2018 07:00 0.00 63.0 81.4 29.58 0.00 0.00 0.00 86.5 121.5 46.8
09/15/2018 06:00 0.00 61.0 81.3 29.57 0.00 0.00 0.00 206.3 247.5 89.0
09/15/2018 05:00 0.00 60.0 80.1 29.57 0.00 0.00 0.00 159.5 198.3 95.5
09/15/2018 04:00 0.00 59.0 79.4 29.59 0.00 0.00 0.00 167.8 180.5 158.0
09/15/2018 03:00 0.00 59.0 79.8 29.59 0.00 0.00 0.00 179.0 186.8 173.5
09/15/2018 02:00 0.00 61.0 77.8 29.60 0.00 0.00 0.00 137.8 162.8 114.3
09/15/2018 01:00 0.00 61.0 79.6 29.61 0.00 0.00 0.00 135.8 187.5 67.0
09/15/2018 00:00 0.00 63.0 75.8 29.61 0.00 0.00 0.00 155.0 206.5 90.3
09/14/2018 23:00 0.00 63.0 75.3 29.60 0.00 0.00 0.00 140.5 177.3 118.8
09/14/2018 22:00 0.00 64.0 69.8 29.60 0.00 0.00 0.00 168.0 205.0 93.3
09/14/2018 21:00 0.00 67.0 65.4 29.59 0.00 0.00 0.00 97.8 175.3 20.5
09/14/2018 20:00 0.00 72.0 50.9 29.59 0.00 1.00 0.00 42.5 115.8 0.5
09/14/2018 19:00 0.00 76.0 45.9 29.59 0.00 1.75 0.00 0.0 5.8 0.0
09/14/2018 18:00 0.00 83.0 27.1 29.59 0.00 1.75 0.00 0.0 8.0 0.0
09/14/2018 17:00 0.00 85.0 20.2 29.60 0.00 2.00 0.00 0.0 8.0 0.0
09/14/2018 16:00 0.00 86.0 18.9 29.61 0.00 3.00 0.00 0.0 13.0 0.0
09/14/2018 15:00 0.00 84.0 22.4 29.63 0.25 4.25 0.00 0.0 5.8 0.0
09/14/2018 14:00 0.00 79.0 41.3 29.64 0.00 0.00 0.00 0.3 41.8 0.0
09/14/2018 13:00 0.00 72.0 67.7 29.66 0.00 1.75 0.00 0.3 43.8 0.0
09/14/2018 12:00 0.00 69.0 73.5 29.67 0.00 1.25 0.00 0.0 24.8 0.0
09/14/2018 11:00 0.00 69.0 72.3 29.67 0.00 0.00 0.00 12.3 112.5 0.0
09/14/2018 10:00 0.00 66.0 82.0 29.67 0.00 0.00 0.00 61.5 138.0 17.5
09/14/2018 09:00 0.00 66.0 85.6 29.67 0.00 0.00 0.00 105.0 147.0 61.8
09/14/2018 08:00 0.00 65.0 86.3 29.66 0.00 0.00 0.00 102.0 124.5 74.5
09/14/2018 07:00 0.00 65.0 86.3 29.65 0.00 0.00 0.00 114.8 148.5 86.3
09/14/2018 06:00 0.00 65.0 86.2 29.64 0.00 0.00 0.00 78.5 116.3 23.5
09/14/2018 05:00 0.00 66.0 86.0 29.64 0.00 0.00 0.00 135.8 170.3 90.5
09/14/2018 04:00 0.01 65.0 85.2 29.65 0.00 0.00 0.00 154.0 169.8 129.3
09/14/2018 03:00 0.00 65.0 83.2 29.65 0.00 0.00 0.00 150.3 174.3 107.8
09/14/2018 02:00 0.00 64.0 82.3 29.65 0.00 0.00 0.00 140.3 157.8 114.0
09/14/2018 01:00 0.00 65.0 80.4 29.65 0.00 0.00 0.00 142.0 152.5 122.3
09/14/2018 00:00 0.00 66.0 81.0 29.65 0.00 0.00 0.00 152.5 169.5 119.0
09/13/2018 23:00 0.00 67.0 78.8 29.66 0.00 0.00 0.00 121.0 148.0 107.0
09/13/2018 22:00 0.00 69.0 78.3 29.65 0.00 0.00 0.00 149.5 197.3 67.5
09/13/2018 21:00 0.00 69.0 77.1 29.64 0.00 0.00 0.00 190.3 249.0 33.0
09/13/2018 20:00 0.00 72.0 72.8 29.64 0.00 0.00 0.00 42.3 120.3 0.0
09/13/2018 19:00 0.00 76.0 61.3 29.63 0.00 0.00 0.00 0.0 41.0 0.0
09/13/2018 18:00 0.00 84.0 40.8 29.63 0.00 0.00 0.00 0.3 54.0 0.0
09/13/2018 17:00 0.00 86.0 31.9 29.64 0.00 0.00 0.00 0.0 35.3 0.0
09/13/2018 16:00 0.00 81.0 45.1 29.65 0.00 1.25 0.00 0.0 22.8 0.0
09/13/2018 15:00 0.00 77.0 55.8 29.66 0.00 0.00 0.00 0.3 32.3 0.0
09/13/2018 14:00 0.00 77.0 54.0 29.68 0.00 0.00 0.00 0.0 44.3 0.0
09/13/2018 13:00 0.00 72.0 63.6 29.68 0.00 1.50 0.00 0.0 43.5 0.0
09/13/2018 12:00 0.00 70.0 69.0 29.70 0.00 0.00 0.00 20.8 109.0 0.0
09/13/2018 11:00 0.00 68.0 76.7 29.70 0.00 1.50 0.00 78.8 216.0 0.0
09/13/2018 10:00 0.00 67.0 77.9 29.69 0.00 0.00 0.00 47.5 142.0 0.5
09/13/2018 09:00 0.00 66.0 83.5 29.68 0.00 0.00 0.00 16.3 55.5 0.0
09/13/2018 08:00 0.00 65.0 84.5 29.68 0.00 0.00 0.00 162.5 212.3 60.0
09/13/2018 07:00 0.00 65.0 84.2 29.67 0.00 0.00 0.00 100.5 190.3 32.0
09/13/2018 06:00 0.02 65.0 83.2 29.67 0.00 0.00 0.00 123.0 235.0 46.0
09/13/2018 05:00 0.00 65.0 77.1 29.67 0.00 1.00 0.00 85.3 121.5 29.3
09/13/2018 04:00 0.00 65.0 76.8 29.67 0.00 0.00 0.00 181.8 233.0 97.3
09/13/2018 03:00 0.00 65.0 73.1 29.68 0.00 0.75 0.00 126.3 246.5 0.5
09/13/2018 02:00 0.00 65.0 76.0 29.68 0.25 3.00 0.00 181.3 236.0 0.0
09/13/2018 01:00 0.00 65.0 80.3 29.68 0.00 1.25 0.00 157.0 234.8 0.0
09/13/2018 00:00 0.00 65.0 81.6 29.67 0.00 0.50 0.00 187.8 241.5 35.5
09/12/2018 23:00 0.00 64.0 82.5 29.66 0.00 0.25 0.00 193.5 217.8 161.3
09/12/2018 22:00 0.00 65.0 81.4 29.66 0.00 0.00 0.00 181.5 216.3 139.3
09/12/2018 21:00 0.00 66.0 77.8 29.66 0.00 0.00 0.00 134.5 191.5 87.5
09/12/2018 20:00 0.00 67.0 74.8 29.67 0.00 0.00 0.00 172.3 225.0 103.3
09/12/2018 19:00 0.00 68.0 72.1 29.67 0.00 0.00 0.00 136.3 218.8 0.0
09/12/2018 18:00 0.00 69.0 70.7 29.67 0.00 0.00 0.00 63.8 175.3 0.0
09/12/2018 17:00 0.00 70.0 63.8 29.67 0.00 0.00 0.00 0.0 2.5 0.0
09/12/2018 16:00 0.00 70.0 64.2 29.69 0.00 0.25 0.00 53.0 120.3 8.8
09/12/2018 15:00 0.00 69.0 69.8 29.69 0.00 0.50 0.00 78.0 159.3 10.8
09/12/2018 14:00 0.00 67.0 71.8 29.69 0.00 0.50 0.00 7.5 68.5 0.0
09/12/2018 13:00 0.01 67.0 73.8 29.69 0.25 3.25 0.00 47.8 142.8 6.5
09/12/2018 12:00 0.00 67.0 72.1 29.69 0.75 5.75 0.00 46.8 113.0 10.5
09/12/2018 11:00 0.00 66.0 75.1 29.68 0.75 6.75 0.00 111.3 184.5 39.3
09/12/2018 10:00 0.01 66.0 74.9 29.67 1.00 5.75 0.00 115.3 176.3 35.0
09/12/2018 09:00 0.00 66.0 75.0 29.66 0.50 3.00 0.00 97.3 138.8 43.0
09/12/2018 08:00 0.00 66.0 77.7 29.64 0.00 2.00 0.00 86.8 124.5 48.0
09/12/2018 07:00 0.00 66.0 79.7 29.62 0.00 2.25 0.00 79.0 118.3 48.5
09/12/2018 06:00 0.00 66.0 82.2 29.61 0.00 0.75 0.00 102.3 139.0 68.8
09/12/2018 05:00 0.00 66.0 81.4 29.59 0.00 0.00 0.00 108.0 130.3 82.3
09/12/2018 04:00 0.00 66.0 81.0 29.59 0.00 0.00 0.00 99.0 118.3 74.3
09/12/2018 03:00 0.00 66.0 81.0 29.59 0.00 0.50 0.00 84.0 116.8 51.3
09/12/2018 02:00 0.00 66.0 81.9 29.58 0.00 0.00 0.00 101.8 132.0 61.3
09/12/2018 01:00 0.00 66.0 82.0 29.57 0.00 0.00 0.00 136.8 164.5 96.3
09/12/2018 00:00 0.00 66.0 81.8 29.57 0.00 0.00 0.00 125.0 151.8 71.8
09/11/2018 23:00 0.00 66.0 81.0 29.56 0.00 0.00 0.00 123.0 147.8 87.8
09/11/2018 22:00 0.00 67.0 81.0 29.56 0.00 0.00 0.00 124.5 154.5 89.0
09/11/2018 21:00 0.00 66.0 80.8 29.55 0.00 0.00 0.00 153.5 237.8 16.0
09/11/2018 20:00 0.00 67.0 77.1 29.53 0.00 0.00 0.00 156.8 186.8 41.8
09/11/2018 19:00 0.00 68.0 74.3 29.52 0.00 0.25 0.00 112.0 223.0 0.5
09/11/2018 18:00 0.00 69.0 70.2 29.51 0.00 3.00 0.00 36.3 189.5 0.0
09/11/2018 17:00 0.00 67.0 70.8 29.52 0.00 2.75 0.00 41.5 230.5 0.0
09/11/2018 16:00 0.00 68.0 68.5 29.52 0.25 4.00 0.00 6.3 160.0 0.0
09/11/2018 15:00 0.00 67.0 69.1 29.53 0.00 3.25 0.00 20.8 121.3 0.0
09/11/2018 14:00 0.00 66.0 69.7 29.53 0.00 1.50 0.00 0.0 10.8 0.0
09/11/2018 13:00 0.00 64.0 76.3 29.54 0.50 5.00 0.00 36.3 87.3 4.5
09/11/2018 12:00 0.00 62.0 77.7 29.54 1.50 7.00 0.00 43.5 107.5 0.5
09/11/2018 11:00 0.00 60.0 80.0 29.54 2.50 8.75 0.00 76.5 150.5 1.8
09/11/2018 10:00 0.00 59.0 82.8 29.54 2.00 7.75 0.00 82.8 157.3 12.8
09/11/2018 09:00 0.00 58.0 84.2 29.54 3.00 10.75 0.00 71.0 159.0 7.8
09/11/2018 08:00 0.02 58.0 84.7 29.54 5.25 14.50 0.00 64.5 127.5 11.0
09/11/2018 07:00 0.10 58.0 85.1 29.55 3.50 11.25 0.00 77.8 144.0 8.0
09/11/2018 06:00 0.43 58.0 85.1 29.56 5.75 15.50 0.00 72.3 147.3 13.3
09/11/2018 05:00 0.19 58.0 85.0 29.58 4.00 13.75 0.00 83.5 155.5 18.5
09/11/2018 04:00 0.16 58.0 84.8 29.60 3.75 11.50 0.00 74.0 141.5 3.8
09/11/2018 03:00 0.31 58.0 84.3 29.63 4.50 13.50 0.00 62.5 147.3 2.8
09/11/2018 02:00 0.13 58.0 84.1 29.65 3.50 10.00 0.00 90.3 141.8 26.8
09/11/2018 01:00 0.12 58.0 83.7 29.67 1.75 7.75 0.00 88.3 127.5 11.0
09/11/2018 00:00 0.05 58.0 83.8 29.68 2.25 7.75 0.00 67.0 112.8 2.0
09/10/2018 23:00 0.06 57.0 83.5 29.68 2.75 8.75 0.00 92.8 152.8 14.0
09/10/2018 22:00 0.10 57.0 82.5 29.69 2.25 11.00 0.00 100.0 175.5 36.0
09/10/2018 21:00 0.07 58.0 81.5 29.70 2.25 12.00 0.00 102.8 156.0 45.0
09/10/2018 20:00 0.03 58.0 80.5 29.70 2.25 10.50 0.00 104.0 169.8 24.0
09/10/2018 19:00 0.02 59.0 78.6 29.71 1.50 10.25 0.00 100.8 170.5 39.0
09/10/2018 18:00 0.02 59.0 75.3 29.72 2.00 11.75 0.00 106.8 175.5 25.5
09/10/2018 17:00 -- 61.0 65.9 -- -- -- -- -- -- --
09/10/2018 16:00 0.00 62.0 56.7 29.74 2.67 12.67 0.00 111.3 194.0 16.0
09/10/2018 15:00 0.00 62.0 55.8 29.75 4.25 14.00 0.00 99.5 179.3 18.5
09/10/2018 14:00 0.00 62.0 54.5 29.76 3.50 13.00 0.00 85.3 167.0 0.0
09/10/2018 13:00 0.00 60.0 58.5 29.77 3.25 11.50 0.00 38.3 142.5 0.0
09/10/2018 12:00 0.00 57.0 59.6 29.78 4.75 15.00 0.00 41.0 142.3 0.0
09/10/2018 11:00 0.00 55.0 58.5 29.77 4.75 15.50 0.00 46.0 143.0 0.8
09/10/2018 10:00 0.00 53.0 58.9 29.76 3.75 12.00 0.00 1.5 29.3 0.0
09/10/2018 09:00 0.00 52.0 63.9 29.76 1.75 7.50 0.00 24.5 56.3 0.0
09/10/2018 08:00 0.00 50.0 68.4 29.75 0.00 2.25 0.00 104.3 137.0 68.0
09/10/2018 07:00 0.00 50.0 69.1 29.74 0.50 4.50 0.00 86.0 133.5 31.5
09/10/2018 06:00 0.00 50.0 73.0 29.74 1.50 5.25 0.00 5.3 27.8 0.0
09/10/2018 05:00 0.00 51.0 74.6 29.74 0.00 3.00 0.00 0.0 0.0 0.0
09/10/2018 04:00 0.00 50.0 76.4 29.75 0.00 0.75 0.00 0.0 0.0 0.0
09/10/2018 03:00 0.00 51.0 73.3 29.74 0.00 0.50 0.00 0.0 0.0 0.0
09/10/2018 02:00 0.00 51.0 73.2 29.73 0.00 0.75 0.00 0.0 0.0 0.0
09/10/2018 01:00 0.00 50.0 76.9 29.73 0.00 0.00 0.00 0.0 0.0 0.0
09/10/2018 00:00 0.00 52.0 72.0 29.72 0.00 0.00 0.00 0.0 0.0 0.0
09/09/2018 23:00 0.00 52.0 70.8 29.71 0.00 0.00 0.00 0.0 0.0 0.0
09/09/2018 22:00 0.00 55.0 59.6 29.69 0.00 0.25 0.00 0.0 0.0 0.0
09/09/2018 21:00 0.00 56.0 60.1 29.68 0.00 0.00 0.00 0.8 2.3 0.0
09/09/2018 20:00 0.00 59.0 47.0 29.67 0.00 0.75 0.00 3.8 5.5 2.5
09/09/2018 19:00 0.00 61.0 40.3 29.67 0.00 1.25 0.00 0.5 1.0 0.3
09/09/2018 18:00 0.00 64.0 28.6 29.66 0.50 4.75 0.00 1.0 24.3 0.0
09/09/2018 17:00 0.00 64.0 25.6 29.66 0.00 2.00 0.00 41.3 168.5 0.3
09/09/2018 16:00 0.00 65.0 22.9 29.68 0.50 4.25 0.00 81.8 175.5 0.0
09/09/2018 15:00 0.00 62.0 26.0 29.68 0.75 6.25 0.00 34.8 82.5 0.0
09/09/2018 14:00 0.00 61.0 28.6 29.69 1.50 7.25 0.00 0.0 0.0 0.0
09/09/2018 13:00 0.00 60.0 27.0 29.70 2.00 8.00 0.00 0.0 0.0 0.0
09/09/2018 12:00 0.00 59.0 31.5 29.70 2.50 9.50 0.00 0.0 0.0 0.0
09/09/2018 11:00 0.00 56.0 38.6 29.70 2.25 10.00 0.00 0.0 0.0 0.0
09/09/2018 10:00 0.00 55.0 45.8 29.69 1.00 7.00 0.00 0.0 0.0 0.0
09/09/2018 09:00 0.00 53.0 51.5 29.68 0.75 6.00 0.00 0.0 7.8 0.0
09/09/2018 08:00 0.00 51.0 58.7 29.66 0.75 5.75 0.00 0.0 0.0 0.0
09/09/2018 07:00 0.00 51.0 58.3 29.65 1.00 8.25 0.00 0.0 0.0 0.0
09/09/2018 06:00 0.00 51.0 56.7 29.64 2.00 10.00 0.00 0.0 8.8 0.0
09/09/2018 05:00 0.00 52.0 54.3 29.63 1.75 8.25 0.00 0.0 0.0 0.0
09/09/2018 04:00 0.00 53.0 53.1 29.63 1.00 8.50 0.00 0.0 0.0 0.0
09/09/2018 03:00 0.00 53.0 49.2 29.63 0.25 5.50 0.00 0.0 0.0 0.0
09/09/2018 02:00 0.00 54.0 48.0 29.63 0.50 5.50 0.00 0.0 0.0 0.0
09/09/2018 01:00 0.00 52.0 54.9 29.63 0.00 0.00 0.00 0.0 0.0 0.0
09/09/2018 00:00 0.00 52.2 55.2 29.63 0.00 0.00 0.00 0.0 0.0 0.0
09/08/2018 23:00 0.00 52.5 55.5 29.63 0.00 0.00 0.00 0.0 0.0 0.0
09/08/2018 22:00 0.00 52.7 55.8 29.63 0.00 0.00 0.00 0.0 0.0 0.0
09/08/2018 21:00 0.00 52.9 56.1 29.63 0.00 0.00 0.00 0.0 0.0 0.0
09/08/2018 20:00 0.00 53.1 56.4 29.63 0.00 0.00 0.00 0.0 0.0 0.0
09/08/2018 19:00 0.00 53.4 56.7 29.63 0.00 0.00 0.00 0.0 0.0 0.0
09/08/2018 18:00 0.00 53.6 57.0 29.63 0.00 0.00 0.00 0.0 0.0 0.0
09/08/2018 17:00 0.00 53.8 57.3 29.63 0.00 0.00 0.00 0.0 0.0 0.0
09/08/2018 16:00 0.00 54.0 57.6 29.63 0.00 0.00 0.00 0.0 0.0 0.0
09/08/2018 15:00 0.00 54.3 58.0 29.63 0.00 0.00 0.00 0.0 0.0 0.0
09/08/2018 14:00 0.00 54.5 58.3 29.63 0.00 0.00 0.00 0.0 0.0 0.0
09/08/2018 13:00 0.00 54.7 58.6 29.63 0.00 0.00 0.00 0.0 0.0 0.0
09/08/2018 12:00 0.00 54.9 58.9 29.63 0.00 0.00 0.00 0.0 0.0 0.0
09/08/2018 11:00 0.00 55.1 59.2 29.63 0.00 0.00 0.00 0.0 0.0 0.0
09/08/2018 10:00 0.00 55.4 59.5 29.63 0.00 0.00 0.00 0.0 0.0 0.0
09/08/2018 09:00 0.00 55.6 59.8 29.63 0.00 0.00 0.00 0.0 0.0 0.0
09/08/2018 08:00 0.00 55.8 60.1 29.63 0.00 0.00 0.00 0.0 0.0 0.0
09/08/2018 07:00 0.00 56.0 60.4 29.63 0.00 0.00 0.00 0.0 0.0 0.0
09/08/2018 06:00 0.00 56.3 60.7 29.63 0.00 0.00 0.00 0.0 0.0 0.0
09/08/2018 05:00 0.00 56.5 61.1 29.63 0.00 0.00 0.00 0.0 0.0 0.0
09/08/2018 04:00 0.00 56.7 61.4 29.63 0.00 0.00 0.00 0.0 0.0 0.0
09/08/2018 03:00 0.00 57.0 61.7 29.63 0.00 0.00 0.00 0.0 0.0 0.0
09/08/2018 02:00 0.00 57.2 62.0 29.63 0.00 0.00 0.00 0.0 0.0 0.0
09/08/2018 01:00 0.00 57.4 62.3 29.63 0.00 0.00 0.00 0.0 0.0 0.0
09/08/2018 00:00 0.00 57.6 62.6 29.63 0.00 0.00 0.00 0.0 0.0 0.0
09/07/2018 23:00 0.00 57.9 62.9 29.63 0.00 0.00 0.00 0.0 0.0 0.0
09/07/2018 22:00 0.00 58.1 63.2 29.63 0.00 0.00 0.00 0.0 0.0 0.0
09/07/2018 21:00 0.00 58.3 63.5 29.63 0.00 0.00 0.00 0.0 0.0 0.0
09/07/2018 20:00 0.00 58.5 63.9 29.63 0.00 0.00 0.00 0.0 0.0 0.0
09/07/2018 19:00 0.00 58.8 64.2 29.63 0.00 0.00 0.00 0.0 0.0 0.0
09/07/2018 18:00 0.00 59.0 64.5 29.63 0.00 0.00 0.00 0.0 0.0 0.0
09/07/2018 17:00 0.00 59.2 64.8 29.63 0.00 0.00 0.00 0.0 0.0 0.0
09/07/2018 16:00 0.00 59.4 65.1 29.63 0.00 0.00 0.00 0.0 0.0 0.0
09/07/2018 15:00 0.00 59.6 65.4 29.63 0.00 0.00 0.00 0.0 0.0 0.0
09/07/2018 14:00 0.00 59.9 65.7 29.63 0.00 0.00 0.00 0.0 0.0 0.0
09/07/2018 13:00 0.00 60.1 66.0 29.63 0.00 0.00 0.00 0.0 0.0 0.0
09/07/2018 12:00 0.00 60.3 66.3 29.63 0.00 0.00 0.00 0.0 0.0 0.0
09/07/2018 11:00 0.00 60.5 66.6 29.63 0.00 0.00 0.00 0.0 0.0 0.0
09/07/2018 10:00 0.00 60.8 67.0 29.63 0.00 0.00 0.00 0.0 0.0 0.0
09/07/2018 09:00 0.00 61.0 67.3 29.62 0.00 0.00 0.00 0.0 10.0 0.0
09/07/2018 08:00 0.00 60.0 71.6 29.61 0.00 0.00 0.00 0.0 0.0 0.0
09/07/2018 07:00 0.00 61.0 55.6 29.60 0.00 0.00 0.00 0.3 23.3 0.0
09/07/2018 06:00 0.00 62.0 59.0 29.59 0.00 2.25 0.00 0.0 0.0 0.0
09/07/2018 05:00 0.00 63.0 52.5 29.58 0.75 5.50 0.00 0.0 0.0 0.0
09/07/2018 04:00 0.00 64.0 57.2 29.56 1.00 8.75 0.00 0.0 0.0 0.0
09/07/2018 03:00 0.00 66.0 61.7 29.55 0.25 1.50 0.00 0.0 0.0 0.0
09/07/2018 02:00 0.00 66.0 77.2 29.54 0.00 0.00 0.00 0.0 0.0 0.0
09/07/2018 01:00 0.00 67.0 74.0 29.54 0.00 0.00 0.00 0.8 38.5 0.0
09/07/2018 00:00 0.00 69.0 76.0 29.54 0.00 0.00 0.00 0.0 8.8 0.0
09/06/2018 23:00 0.00 70.0 77.5 29.53 0.00 0.00 0.00 0.0 0.0 0.0
09/06/2018 22:00 0.00 72.0 74.0 29.52 0.00 0.00 0.00 0.0 24.5 0.0
09/06/2018 21:00 0.00 72.0 74.5 29.50 0.00 0.00 0.00 0.5 48.0 0.0
09/06/2018 20:00 0.00 76.0 69.0 29.47 0.00 0.00 0.00 0.0 14.8 0.0
09/06/2018 19:00 0.00 78.0 58.3 29.45 0.00 0.00 0.00 0.0 37.5 0.0
09/06/2018 18:00 0.00 81.0 54.0 29.45 0.00 0.00 0.00 0.0 0.5 0.0
09/06/2018 17:00 0.01 78.0 64.6 29.44 0.00 0.00 0.00 0.0 37.0 0.0
09/06/2018 16:00 0.00 77.0 65.9 29.44 0.50 5.50 0.00 0.3 51.8 0.0
09/06/2018 15:00 0.00 78.0 71.0 29.43 0.25 3.50 0.00 0.5 74.0 0.0
09/06/2018 14:00 0.11 75.0 78.1 29.41 2.00 14.25 0.00 0.3 36.0 0.0
09/06/2018 13:00 0.00 86.0 48.5 29.41 0.50 10.00 0.00 0.0 38.3 0.0
09/06/2018 12:00 0.00 84.0 54.5 29.42 0.00 6.50 0.00 0.0 45.3 0.0
09/06/2018 11:00 0.00 82.0 58.7 29.42 1.50 9.50 0.00 0.0 46.3 0.0
09/06/2018 10:00 0.00 80.0 63.6 29.42 0.50 7.50 0.00 0.0 45.5 0.0
09/06/2018 09:00 0.00 77.0 71.1 29.43 0.00 0.75 0.00 0.0 35.0 0.0
09/06/2018 08:00 0.00 74.0 80.1 29.43 0.00 0.00 0.00 0.0 24.0 0.0
09/06/2018 07:00 0.00 74.0 79.9 29.43 0.00 0.00 0.00 0.0 29.5 0.0
09/06/2018 06:00 0.00 75.0 78.9 29.43 0.00 2.00 0.00 0.3 43.5 0.0
09/06/2018 05:00 0.00 75.0 78.0 29.44 0.00 4.50 0.00 0.3 42.8 0.0
09/06/2018 04:00 0.00 75.0 77.1 29.45 0.00 2.50 0.00 0.0 33.3 0.0
09/06/2018 03:00 0.00 76.0 73.6 29.47 0.25 6.00 0.00 0.0 39.3 0.0
09/06/2018 02:00 0.00 77.0 70.5 29.47 0.00 7.50 0.00 0.0 39.3 0.0
09/06/2018 01:00 0.00 77.0 66.1 29.49 0.00 2.00 0.00 0.5 60.3 0.0
09/06/2018 00:00 0.00 77.0 65.7 29.49 0.00 0.00 0.00 0.5 68.0 0.0
09/05/2018 23:00 0.00 78.0 65.2 29.50 0.00 0.00 0.00 0.0 48.0 0.0
09/05/2018 22:00 0.00 79.0 65.5 29.50 0.00 0.00 0.00 0.0 40.3 0.0
09/05/2018 21:00 0.00 80.0 62.0 29.49 0.00 0.00 0.00 0.0 28.0 0.0
09/05/2018 20:00 0.00 82.0 56.4 29.49 0.00 0.00 0.00 0.3 59.3 0.0
09/05/2018 19:00 0.00 86.0 44.3 29.50 0.00 0.00 0.00 0.0 38.8 0.0
09/05/2018 18:00 0.00 92.0 29.5 29.51 0.00 0.00 0.00 0.0 44.8 0.0
09/05/2018 17:00 0.00 94.0 25.4 29.53 0.00 0.00 0.00 0.3 50.8 0.0
09/05/2018 16:00 0.00 91.0 24.8 29.54 0.00 0.00 0.00 0.3 63.5 0.0
09/05/2018 15:00 0.00 89.0 32.5 29.56 0.00 0.00 0.00 0.0 45.3 0.0
09/05/2018 14:00 0.00 86.0 39.1 29.57 0.00 0.00 0.00 0.0 47.0 0.0
09/05/2018 13:00 -- -- -- -- -- -- -- -- -- --
09/05/2018 12:00 -- -- -- -- -- -- -- -- -- --
09/05/2018 11:00 -- -- -- -- -- -- -- -- -- --
09/05/2018 10:00 -- -- -- -- -- -- -- -- -- --
09/05/2018 09:00 -- -- -- -- -- -- -- -- -- --
09/05/2018 08:00 -- -- -- -- -- -- -- -- -- --
09/05/2018 07:00 -- -- -- -- -- -- -- -- -- --
09/05/2018 06:00 -- -- -- -- -- -- -- -- -- --
09/05/2018 05:00 -- -- -- -- -- -- -- -- -- --